world map with FVKB marked

FVKB - Airport

This information may not be accurate or current and is not valid for navigation or flight planning. No warranty of fitness for any purpose is made or implied.

flag of Zimbabwe

Donate via PayPal

Additional information is available on the NEW Great Circle Mapper

Location
City:  Kariba, Mashonaland West, Zimbabwe
Name:Kariba International Airport
ICAO / IATA:FVKB / KAB

Details
Type:Airport (Aerodrome, Airfield)
Use:Public/Civil
Latitude:16°31'11"S (-16.519760)
Longitude:28°53'06"E (28.884981)
Datum:WGS 1984
Elevation:1706 ft (520 m)
Runways:1
Longest:5413 × 59 ft (1650 × 18 m)

Time
Timezone:UTC+2 (DST+4)
Local Time:

Weather
METAR:FVKB  151200Z 26004KT CAVOK 36/09 Q1011 NOSIG
TAF:FVKB  (expired)

Related Locations
Nearby:
Farthest:ITO: 12101 mi / 19474 km
Hilo [Hilo Intl], Hawaii, HI, US

Find:

   beyond  
but within

Other Information
Maps:
Sources:

  


 


Great Circle Mapper   Great Circle Mapper
Great Circle Mapper FAQ   Great Circle Mapper FAQ
  Karl's Home Page
KLSē   KLSē Home
   GC on Facebook
Airlines of the World   Airlines of the World
Donate via PayPal


Copyright © 2004-2018, Karl L. Swartz. All rights reserved.
All trademarks mentioned herein belong to their respective owners.

Please see credits for attribution and copyright information.

Karl Swartz <karl@kls2.com>
  Powered by FreeBSD
Valid HTML 4.01!
Labeled with ICRA
hCard Microformat
Geo Microformat